sensor_id;sensor_type;location;lat;lon;timestamp;P1;durP1;ratioP1;P2;durP2;ratioP2
22531;SDS011;11432;46.924;7.114;2022-10-26T00:00:25;10.65;;;6.40;;
22531;SDS011;11432;46.924;7.114;2022-10-26T00:02:55;14.52;;;7.40;;
22531;SDS011;11432;46.924;7.114;2022-10-26T00:05:21;10.70;;;6.43;;
22531;SDS011;11432;46.924;7.114;2022-10-26T00:07:48;12.18;;;7.20;;
22531;SDS011;11432;46.924;7.114;2022-10-26T00:10:14;13.02;;;7.07;;
22531;SDS011;11432;46.924;7.114;2022-10-26T00:12:39;11.18;;;7.32;;
22531;SDS011;11432;46.924;7.114;2022-10-26T00:15:06;10.93;;;6.82;;
22531;SDS011;11432;46.924;7.114;2022-10-26T00:17:32;12.50;;;6.82;;
22531;SDS011;11432;46.924;7.114;2022-10-26T00:19:58;11.43;;;7.00;;
22531;SDS011;11432;46.924;7.114;2022-10-26T00:22:25;10.43;;;6.70;;
22531;SDS011;11432;46.924;7.114;2022-10-26T00:24:51;11.55;;;7.50;;
22531;SDS011;11432;46.924;7.114;2022-10-26T00:27:16;11.65;;;6.57;;
22531;SDS011;11432;46.924;7.114;2022-10-26T00:29:42;9.70;;;6.93;;
22531;SDS011;11432;46.924;7.114;2022-10-26T00:32:08;10.73;;;6.40;;
22531;SDS011;11432;46.924;7.114;2022-10-26T00:34:33;9.00;;;5.22;;
22531;SDS011;11432;46.924;7.114;2022-10-26T00:36:59;9.27;;;5.90;;
22531;SDS011;11432;46.924;7.114;2022-10-26T00:39:25;8.85;;;6.00;;
22531;SDS011;11432;46.924;7.114;2022-10-26T00:41:50;9.40;;;5.55;;
22531;SDS011;11432;46.924;7.114;2022-10-26T00:47:10;8.57;;;5.72;;
22531;SDS011;11432;46.924;7.114;2022-10-26T00:49:46;10.60;;;6.03;;
22531;SDS011;11432;46.924;7.114;2022-10-26T00:52:14;9.85;;;6.03;;
22531;SDS011;11432;46.924;7.114;2022-10-26T00:54:42;11.93;;;5.90;;
22531;SDS011;11432;46.924;7.114;2022-10-26T00:57:08;12.27;;;6.47;;
22531;SDS011;11432;46.924;7.114;2022-10-26T00:59:35;10.77;;;6.47;;
22531;SDS011;11432;46.924;7.114;2022-10-26T01:02:01;13.80;;;7.07;;
22531;SDS011;11432;46.924;7.114;2022-10-26T01:04:27;9.32;;;5.90;;
22531;SDS011;11432;46.924;7.114;2022-10-26T01:06:52;9.23;;;5.60;;
22531;SDS011;11432;46.924;7.114;2022-10-26T01:09:19;8.20;;;5.75;;
22531;SDS011;11432;46.924;7.114;2022-10-26T01:11:45;11.65;;;6.72;;
22531;SDS011;11432;46.924;7.114;2022-10-26T01:14:11;9.27;;;5.93;;
22531;SDS011;11432;46.924;7.114;2022-10-26T01:21:54;8.18;;;5.55;;
22531;SDS011;11432;46.924;7.114;2022-10-26T01:27:34;7.93;;;5.50;;
22531;SDS011;11432;46.924;7.114;2022-10-26T01:35:40;9.90;;;6.03;;
22531;SDS011;11432;46.924;7.114;2022-10-26T01:43:58;11.00;;;5.40;;
22531;SDS011;11432;46.924;7.114;2022-10-26T01:46:28;11.40;;;5.03;;
22531;SDS011;11432;46.924;7.114;2022-10-26T01:48:58;9.55;;;5.15;;
22531;SDS011;11432;46.924;7.114;2022-10-26T01:51:29;7.65;;;5.07;;
22531;SDS011;11432;46.924;7.114;2022-10-26T01:53:56;7.93;;;5.25;;
22531;SDS011;11432;46.924;7.114;2022-10-26T01:56:24;9.32;;;5.28;;
22531;SDS011;11432;46.924;7.114;2022-10-26T02:07:29;7.65;;;4.80;;
22531;SDS011;11432;46.924;7.114;2022-10-26T02:12:51;10.80;;;5.68;;
22531;SDS011;11432;46.924;7.114;2022-10-26T02:20:48;8.68;;;5.15;;
22531;SDS011;11432;46.924;7.114;2022-10-26T02:23:17;10.82;;;5.10;;
22531;SDS011;11432;46.924;7.114;2022-10-26T02:25:48;8.40;;;5.22;;
22531;SDS011;11432;46.924;7.114;2022-10-26T02:28:18;7.07;;;4.82;;
22531;SDS011;11432;46.924;7.114;2022-10-26T02:30:49;8.63;;;5.65;;
22531;SDS011;11432;46.924;7.114;2022-10-26T02:33:19;9.18;;;5.70;;
22531;SDS011;11432;46.924;7.114;2022-10-26T02:35:47;7.82;;;4.68;;
22531;SDS011;11432;46.924;7.114;2022-10-26T02:38:15;7.10;;;4.32;;
22531;SDS011;11432;46.924;7.114;2022-10-26T02:40:43;7.28;;;4.47;;
22531;SDS011;11432;46.924;7.114;2022-10-26T02:43:12;8.48;;;5.05;;
22531;SDS011;11432;46.924;7.114;2022-10-26T02:45:42;8.10;;;4.75;;
22531;SDS011;11432;46.924;7.114;2022-10-26T02:48:13;8.63;;;4.43;;
22531;SDS011;11432;46.924;7.114;2022-10-26T02:53:28;11.32;;;5.10;;
22531;SDS011;11432;46.924;7.114;2022-10-26T02:55:59;7.90;;;4.22;;
22531;SDS011;11432;46.924;7.114;2022-10-26T02:58:31;7.38;;;4.82;;
22531;SDS011;11432;46.924;7.114;2022-10-26T03:01:01;11.48;;;5.75;;
22531;SDS011;11432;46.924;7.114;2022-10-26T03:03:26;13.27;;;6.25;;
22531;SDS011;11432;46.924;7.114;2022-10-26T03:05:52;8.73;;;5.80;;
22531;SDS011;11432;46.924;7.114;2022-10-26T03:08:18;10.27;;;5.90;;
22531;SDS011;11432;46.924;7.114;2022-10-26T03:10:44;10.75;;;5.47;;
22531;SDS011;11432;46.924;7.114;2022-10-26T03:13:10;9.15;;;5.60;;
22531;SDS011;11432;46.924;7.114;2022-10-26T03:15:36;9.38;;;5.85;;
22531;SDS011;11432;46.924;7.114;2022-10-26T03:18:02;10.40;;;5.90;;
22531;SDS011;11432;46.924;7.114;2022-10-26T03:20:28;10.10;;;5.70;;
22531;SDS011;11432;46.924;7.114;2022-10-26T03:22:54;9.63;;;5.82;;
22531;SDS011;11432;46.924;7.114;2022-10-26T03:25:21;9.02;;;5.50;;
22531;SDS011;11432;46.924;7.114;2022-10-26T03:27:54;8.52;;;5.72;;
22531;SDS011;11432;46.924;7.114;2022-10-26T03:30:24;8.05;;;5.13;;
22531;SDS011;11432;46.924;7.114;2022-10-26T03:32:51;10.93;;;6.93;;
22531;SDS011;11432;46.924;7.114;2022-10-26T03:35:17;8.80;;;5.85;;
22531;SDS011;11432;46.924;7.114;2022-10-26T03:37:42;12.23;;;6.18;;
22531;SDS011;11432;46.924;7.114;2022-10-26T03:40:08;9.20;;;5.43;;
22531;SDS011;11432;46.924;7.114;2022-10-26T03:42:37;10.10;;;5.10;;
22531;SDS011;11432;46.924;7.114;2022-10-26T03:45:03;7.78;;;5.63;;
22531;SDS011;11432;46.924;7.114;2022-10-26T03:47:30;10.07;;;5.55;;
22531;SDS011;11432;46.924;7.114;2022-10-26T03:49:56;8.95;;;5.50;;
22531;SDS011;11432;46.924;7.114;2022-10-26T03:52:21;8.85;;;5.82;;
22531;SDS011;11432;46.924;7.114;2022-10-26T03:54:48;8.27;;;5.20;;
22531;SDS011;11432;46.924;7.114;2022-10-26T03:57:14;10.63;;;5.97;;
22531;SDS011;11432;46.924;7.114;2022-10-26T03:59:40;10.40;;;6.13;;
22531;SDS011;11432;46.924;7.114;2022-10-26T04:02:05;10.00;;;6.35;;
22531;SDS011;11432;46.924;7.114;2022-10-26T04:04:31;9.15;;;6.55;;
22531;SDS011;11432;46.924;7.114;2022-10-26T04:06:56;10.73;;;5.75;;
22531;SDS011;11432;46.924;7.114;2022-10-26T04:09:22;10.07;;;6.25;;
22531;SDS011;11432;46.924;7.114;2022-10-26T04:11:48;10.40;;;6.30;;
22531;SDS011;11432;46.924;7.114;2022-10-26T04:14:13;10.43;;;6.25;;
22531;SDS011;11432;46.924;7.114;2022-10-26T04:16:39;9.55;;;5.43;;
22531;SDS011;11432;46.924;7.114;2022-10-26T04:19:05;13.05;;;7.40;;
22531;SDS011;11432;46.924;7.114;2022-10-26T04:21:30;9.60;;;6.15;;
22531;SDS011;11432;46.924;7.114;2022-10-26T04:23:59;10.27;;;6.23;;
22531;SDS011;11432;46.924;7.114;2022-10-26T04:26:25;10.32;;;6.30;;
22531;SDS011;11432;46.924;7.114;2022-10-26T04:28:51;9.85;;;5.88;;
22531;SDS011;11432;46.924;7.114;2022-10-26T04:31:17;13.38;;;6.50;;
22531;SDS011;11432;46.924;7.114;2022-10-26T04:33:42;10.30;;;6.57;;
22531;SDS011;11432;46.924;7.114;2022-10-26T04:36:08;10.63;;;6.47;;
22531;SDS011;11432;46.924;7.114;2022-10-26T04:38:34;12.98;;;6.80;;
22531;SDS011;11432;46.924;7.114;2022-10-26T04:40:59;10.30;;;6.70;;
22531;SDS011;11432;46.924;7.114;2022-10-26T04:43:25;11.60;;;6.53;;
22531;SDS011;11432;46.924;7.114;2022-10-26T04:45:54;9.65;;;6.25;;
22531;SDS011;11432;46.924;7.114;2022-10-26T04:48:20;11.43;;;6.53;;
22531;SDS011;11432;46.924;7.114;2022-10-26T04:50:46;11.93;;;6.15;;
22531;SDS011;11432;46.924;7.114;2022-10-26T04:53:12;8.30;;;4.82;;
22531;SDS011;11432;46.924;7.114;2022-10-26T04:55:37;9.82;;;5.88;;
22531;SDS011;11432;46.924;7.114;2022-10-26T04:58:03;8.18;;;5.22;;
22531;SDS011;11432;46.924;7.114;2022-10-26T05:00:29;10.48;;;6.28;;
22531;SDS011;11432;46.924;7.114;2022-10-26T05:03:00;12.15;;;5.70;;
22531;SDS011;11432;46.924;7.114;2022-10-26T05:05:26;11.65;;;6.47;;
22531;SDS011;11432;46.924;7.114;2022-10-26T05:07:53;9.20;;;5.70;;
22531;SDS011;11432;46.924;7.114;2022-10-26T05:10:20;7.57;;;5.57;;
22531;SDS011;11432;46.924;7.114;2022-10-26T05:12:49;9.80;;;6.03;;
22531;SDS011;11432;46.924;7.114;2022-10-26T05:15:16;9.90;;;6.15;;
22531;SDS011;11432;46.924;7.114;2022-10-26T05:17:42;12.07;;;5.38;;
22531;SDS011;11432;46.924;7.114;2022-10-26T05:20:07;11.07;;;6.43;;
22531;SDS011;11432;46.924;7.114;2022-10-26T05:22:36;10.85;;;6.43;;
22531;SDS011;11432;46.924;7.114;2022-10-26T05:25:02;10.20;;;6.05;;
22531;SDS011;11432;46.924;7.114;2022-10-26T05:27:28;10.48;;;5.85;;
22531;SDS011;11432;46.924;7.114;2022-10-26T05:29:53;8.35;;;5.53;;
22531;SDS011;11432;46.924;7.114;2022-10-26T05:32:19;11.85;;;5.20;;
22531;SDS011;11432;46.924;7.114;2022-10-26T05:34:45;8.18;;;5.28;;
22531;SDS011;11432;46.924;7.114;2022-10-26T05:37:10;10.23;;;5.20;;
22531;SDS011;11432;46.924;7.114;2022-10-26T05:39:36;8.70;;;5.70;;
22531;SDS011;11432;46.924;7.114;2022-10-26T05:42:02;9.75;;;6.22;;
22531;SDS011;11432;46.924;7.114;2022-10-26T05:44:27;8.18;;;5.53;;
22531;SDS011;11432;46.924;7.114;2022-10-26T05:46:53;9.93;;;5.45;;
22531;SDS011;11432;46.924;7.114;2022-10-26T05:49:18;10.00;;;5.63;;
22531;SDS011;11432;46.924;7.114;2022-10-26T05:51:44;13.90;;;6.07;;
22531;SDS011;11432;46.924;7.114;2022-10-26T05:54:10;12.88;;;5.40;;
22531;SDS011;11432;46.924;7.114;2022-10-26T05:56:36;9.90;;;5.90;;
22531;SDS011;11432;46.924;7.114;2022-10-26T05:59:05;8.82;;;5.32;;
22531;SDS011;11432;46.924;7.114;2022-10-26T06:04:43;9.70;;;5.13;;
22531;SDS011;11432;46.924;7.114;2022-10-26T06:07:13;12.57;;;6.60;;
22531;SDS011;11432;46.924;7.114;2022-10-26T06:09:40;11.90;;;6.95;;
22531;SDS011;11432;46.924;7.114;2022-10-26T06:12:07;10.70;;;6.30;;
22531;SDS011;11432;46.924;7.114;2022-10-26T06:14:34;8.95;;;6.03;;
22531;SDS011;11432;46.924;7.114;2022-10-26T06:17:04;7.60;;;5.03;;
22531;SDS011;11432;46.924;7.114;2022-10-26T06:30:49;10.02;;;5.50;;
22531;SDS011;11432;46.924;7.114;2022-10-26T06:33:16;7.45;;;5.20;;
22531;SDS011;11432;46.924;7.114;2022-10-26T06:38:15;8.18;;;5.32;;
22531;SDS011;11432;46.924;7.114;2022-10-26T06:43:31;8.07;;;5.10;;
22531;SDS011;11432;46.924;7.114;2022-10-26T06:48:43;9.63;;;5.38;;
22531;SDS011;11432;46.924;7.114;2022-10-26T06:51:14;9.55;;;5.15;;
22531;SDS011;11432;46.924;7.114;2022-10-26T06:53:42;8.70;;;4.85;;
22531;SDS011;11432;46.924;7.114;2022-10-26T06:56:20;8.80;;;5.57;;
22531;SDS011;11432;46.924;7.114;2022-10-26T06:58:48;10.48;;;5.72;;
22531;SDS011;11432;46.924;7.114;2022-10-26T07:01:16;9.07;;;5.57;;
22531;SDS011;11432;46.924;7.114;2022-10-26T07:03:42;8.32;;;5.53;;
22531;SDS011;11432;46.924;7.114;2022-10-26T07:06:08;9.57;;;6.05;;
22531;SDS011;11432;46.924;7.114;2022-10-26T07:08:34;8.35;;;5.60;;
22531;SDS011;11432;46.924;7.114;2022-10-26T07:10:59;9.32;;;5.10;;
22531;SDS011;11432;46.924;7.114;2022-10-26T07:13:25;8.20;;;5.25;;
22531;SDS011;11432;46.924;7.114;2022-10-26T07:15:50;10.25;;;4.82;;
22531;SDS011;11432;46.924;7.114;2022-10-26T07:18:16;7.65;;;4.88;;
22531;SDS011;11432;46.924;7.114;2022-10-26T07:20:42;8.18;;;5.32;;
22531;SDS011;11432;46.924;7.114;2022-10-26T07:23:08;10.10;;;5.65;;
22531;SDS011;11432;46.924;7.114;2022-10-26T07:25:37;9.30;;;5.15;;
22531;SDS011;11432;46.924;7.114;2022-10-26T07:28:04;7.72;;;4.78;;
22531;SDS011;11432;46.924;7.114;2022-10-26T07:30:31;9.23;;;5.45;;
22531;SDS011;11432;46.924;7.114;2022-10-26T07:32:58;9.65;;;4.82;;
22531;SDS011;11432;46.924;7.114;2022-10-26T07:35:27;8.45;;;4.82;;
22531;SDS011;11432;46.924;7.114;2022-10-26T07:37:57;7.63;;;4.88;;
22531;SDS011;11432;46.924;7.114;2022-10-26T07:40:22;8.35;;;5.32;;
22531;SDS011;11432;46.924;7.114;2022-10-26T07:42:49;7.95;;;5.35;;
22531;SDS011;11432;46.924;7.114;2022-10-26T07:45:14;12.15;;;5.80;;
22531;SDS011;11432;46.924;7.114;2022-10-26T07:47:40;8.82;;;5.25;;
22531;SDS011;11432;46.924;7.114;2022-10-26T07:50:05;10.70;;;5.70;;
22531;SDS011;11432;46.924;7.114;2022-10-26T07:52:32;9.05;;;6.20;;
22531;SDS011;11432;46.924;7.114;2022-10-26T07:54:59;7.82;;;4.93;;
22531;SDS011;11432;46.924;7.114;2022-10-26T07:57:25;8.60;;;5.65;;
22531;SDS011;11432;46.924;7.114;2022-10-26T07:59:51;9.27;;;5.40;;
22531;SDS011;11432;46.924;7.114;2022-10-26T08:02:16;12.32;;;5.47;;
22531;SDS011;11432;46.924;7.114;2022-10-26T08:04:43;9.38;;;5.13;;
22531;SDS011;11432;46.924;7.114;2022-10-26T08:07:08;8.95;;;5.20;;
22531;SDS011;11432;46.924;7.114;2022-10-26T08:09:34;10.65;;;5.22;;
22531;SDS011;11432;46.924;7.114;2022-10-26T08:11:59;7.70;;;5.03;;
22531;SDS011;11432;46.924;7.114;2022-10-26T08:14:25;9.48;;;5.25;;
22531;SDS011;11432;46.924;7.114;2022-10-26T08:16:50;10.23;;;5.20;;
22531;SDS011;11432;46.924;7.114;2022-10-26T08:19:16;8.48;;;5.53;;
22531;SDS011;11432;46.924;7.114;2022-10-26T08:21:42;9.20;;;5.43;;
22531;SDS011;11432;46.924;7.114;2022-10-26T08:24:08;9.82;;;5.45;;
22531;SDS011;11432;46.924;7.114;2022-10-26T08:26:34;9.52;;;5.22;;
22531;SDS011;11432;46.924;7.114;2022-10-26T08:28:59;8.05;;;5.28;;
22531;SDS011;11432;46.924;7.114;2022-10-26T08:31:25;12.02;;;5.72;;
22531;SDS011;11432;46.924;7.114;2022-10-26T08:33:50;8.20;;;5.65;;
22531;SDS011;11432;46.924;7.114;2022-10-26T08:36:17;9.02;;;5.25;;
22531;SDS011;11432;46.924;7.114;2022-10-26T08:38:47;7.70;;;5.18;;
22531;SDS011;11432;46.924;7.114;2022-10-26T08:41:13;8.32;;;4.88;;
22531;SDS011;11432;46.924;7.114;2022-10-26T08:43:51;9.98;;;6.13;;
22531;SDS011;11432;46.924;7.114;2022-10-26T08:46:23;9.80;;;5.90;;
22531;SDS011;11432;46.924;7.114;2022-10-26T08:49:01;10.60;;;5.90;;
22531;SDS011;11432;46.924;7.114;2022-10-26T08:51:43;10.32;;;5.78;;
22531;SDS011;11432;46.924;7.114;2022-10-26T08:54:16;11.48;;;6.03;;
22531;SDS011;11432;46.924;7.114;2022-10-26T08:56:48;7.93;;;5.25;;
22531;SDS011;11432;46.924;7.114;2022-10-26T09:02:11;9.43;;;4.88;;
22531;SDS011;11432;46.924;7.114;2022-10-26T09:04:38;9.50;;;5.93;;
22531;SDS011;11432;46.924;7.114;2022-10-26T09:07:20;9.82;;;5.38;;
22531;SDS011;11432;46.924;7.114;2022-10-26T09:10:07;9.98;;;5.95;;
22531;SDS011;11432;46.924;7.114;2022-10-26T09:12:53;11.07;;;5.85;;
22531;SDS011;11432;46.924;7.114;2022-10-26T09:21:55;10.23;;;5.38;;
22531;SDS011;11432;46.924;7.114;2022-10-26T09:24:21;7.97;;;5.15;;
22531;SDS011;11432;46.924;7.114;2022-10-26T09:29:31;9.98;;;5.75;;
22531;SDS011;11432;46.924;7.114;2022-10-26T09:32:02;11.63;;;5.93;;
22531;SDS011;11432;46.924;7.114;2022-10-26T09:34:33;9.23;;;5.88;;
22531;SDS011;11432;46.924;7.114;2022-10-26T09:37:12;8.45;;;5.57;;
22531;SDS011;11432;46.924;7.114;2022-10-26T09:39:57;10.45;;;5.57;;
22531;SDS011;11432;46.924;7.114;2022-10-26T09:42:26;10.07;;;5.77;;
22531;SDS011;11432;46.924;7.114;2022-10-26T09:45:03;9.18;;;5.60;;
22531;SDS011;11432;46.924;7.114;2022-10-26T09:47:48;10.52;;;5.40;;
22531;SDS011;11432;46.924;7.114;2022-10-26T09:50:23;9.95;;;5.65;;
22531;SDS011;11432;46.924;7.114;2022-10-26T09:52:54;8.48;;;5.80;;
22531;SDS011;11432;46.924;7.114;2022-10-26T09:55:20;9.13;;;5.50;;
22531;SDS011;11432;46.924;7.114;2022-10-26T09:57:47;10.15;;;5.65;;
22531;SDS011;11432;46.924;7.114;2022-10-26T10:00:17;9.65;;;5.22;;
22531;SDS011;11432;46.924;7.114;2022-10-26T10:02:46;10.18;;;5.45;;
22531;SDS011;11432;46.924;7.114;2022-10-26T10:05:19;9.00;;;4.70;;
22531;SDS011;11432;46.924;7.114;2022-10-26T10:07:51;9.70;;;5.07;;
22531;SDS011;11432;46.924;7.114;2022-10-26T10:10:21;9.10;;;4.95;;
22531;SDS011;11432;46.924;7.114;2022-10-26T10:12:47;9.50;;;4.53;;
22531;SDS011;11432;46.924;7.114;2022-10-26T10:15:25;7.88;;;4.22;;
22531;SDS011;11432;46.924;7.114;2022-10-26T10:17:51;6.90;;;4.47;;
22531;SDS011;11432;46.924;7.114;2022-10-26T10:20:32;6.53;;;4.43;;
22531;SDS011;11432;46.924;7.114;2022-10-26T10:23:01;8.05;;;4.70;;
22531;SDS011;11432;46.924;7.114;2022-10-26T10:25:37;7.25;;;4.13;;
22531;SDS011;11432;46.924;7.114;2022-10-26T10:28:18;9.05;;;5.10;;
22531;SDS011;11432;46.924;7.114;2022-10-26T10:30:56;11.77;;;4.70;;
22531;SDS011;11432;46.924;7.114;2022-10-26T10:33:34;7.07;;;4.28;;
22531;SDS011;11432;46.924;7.114;2022-10-26T10:36:03;9.25;;;4.85;;
22531;SDS011;11432;46.924;7.114;2022-10-26T10:38:37;11.82;;;4.85;;
22531;SDS011;11432;46.924;7.114;2022-10-26T10:41:05;11.80;;;5.03;;
22531;SDS011;11432;46.924;7.114;2022-10-26T10:44:04;11.98;;;4.95;;
22531;SDS011;11432;46.924;7.114;2022-10-26T10:46:33;9.15;;;4.57;;
22531;SDS011;11432;46.924;7.114;2022-10-26T10:49:00;7.20;;;4.57;;
22531;SDS011;11432;46.924;7.114;2022-10-26T10:51:29;8.45;;;4.68;;
22531;SDS011;11432;46.924;7.114;2022-10-26T10:54:00;9.43;;;4.55;;
22531;SDS011;11432;46.924;7.114;2022-10-26T10:56:46;7.97;;;4.28;;
22531;SDS011;11432;46.924;7.114;2022-10-26T10:59:32;10.23;;;5.15;;
22531;SDS011;11432;46.924;7.114;2022-10-26T11:05:06;8.15;;;4.07;;
22531;SDS011;11432;46.924;7.114;2022-10-26T11:07:54;14.45;;;4.60;;
22531;SDS011;11432;46.924;7.114;2022-10-26T11:10:28;8.98;;;4.65;;
22531;SDS011;11432;46.924;7.114;2022-10-26T11:12:58;7.45;;;4.57;;
22531;SDS011;11432;46.924;7.114;2022-10-26T11:15:30;8.73;;;4.10;;
22531;SDS011;11432;46.924;7.114;2022-10-26T11:18:01;8.35;;;3.92;;
22531;SDS011;11432;46.924;7.114;2022-10-26T11:20:38;6.50;;;4.20;;
22531;SDS011;11432;46.924;7.114;2022-10-26T11:23:10;8.50;;;4.15;;
22531;SDS011;11432;46.924;7.114;2022-10-26T11:28:45;7.57;;;3.45;;
22531;SDS011;11432;46.924;7.114;2022-10-26T11:31:22;5.68;;;3.40;;
22531;SDS011;11432;46.924;7.114;2022-10-26T11:34:12;8.02;;;4.22;;
22531;SDS011;11432;46.924;7.114;2022-10-26T11:36:51;5.78;;;3.45;;
22531;SDS011;11432;46.924;7.114;2022-10-26T11:44:34;6.57;;;4.18;;
22531;SDS011;11432;46.924;7.114;2022-10-26T11:47:17;8.43;;;3.63;;
22531;SDS011;11432;46.924;7.114;2022-10-26T11:50:31;9.77;;;4.10;;
22531;SDS011;11432;46.924;7.114;2022-10-26T11:52:51;5.10;;;3.75;;
22531;SDS011;11432;46.924;7.114;2022-10-26T11:55:22;9.15;;;4.00;;
22531;SDS011;11432;46.924;7.114;2022-10-26T11:57:48;6.10;;;3.40;;
22531;SDS011;11432;46.924;7.114;2022-10-26T12:00:17;8.30;;;3.40;;
22531;SDS011;11432;46.924;7.114;2022-10-26T12:03:18;4.70;;;2.70;;
22531;SDS011;11432;46.924;7.114;2022-10-26T12:08:05;8.85;;;3.30;;
22531;SDS011;11432;46.924;7.114;2022-10-26T12:10:38;9.45;;;3.58;;
22531;SDS011;11432;46.924;7.114;2022-10-26T12:13:14;6.88;;;2.95;;
22531;SDS011;11432;46.924;7.114;2022-10-26T12:16:05;4.38;;;2.65;;
22531;SDS011;11432;46.924;7.114;2022-10-26T12:21:31;7.60;;;3.38;;
22531;SDS011;11432;46.924;7.114;2022-10-26T12:23:58;8.60;;;2.88;;
22531;SDS011;11432;46.924;7.114;2022-10-26T12:34:00;7.03;;;3.40;;
22531;SDS011;11432;46.924;7.114;2022-10-26T12:47:08;6.22;;;3.13;;
22531;SDS011;11432;46.924;7.114;2022-10-26T12:52:25;7.82;;;3.35;;
22531;SDS011;11432;46.924;7.114;2022-10-26T13:00:16;4.47;;;3.00;;
22531;SDS011;11432;46.924;7.114;2022-10-26T13:08:14;5.57;;;2.97;;
22531;SDS011;11432;46.924;7.114;2022-10-26T13:10:44;6.30;;;2.83;;
22531;SDS011;11432;46.924;7.114;2022-10-26T13:13:30;5.05;;;2.60;;
22531;SDS011;11432;46.924;7.114;2022-10-26T13:15:58;5.03;;;2.90;;
22531;SDS011;11432;46.924;7.114;2022-10-26T13:18:25;5.25;;;2.63;;
22531;SDS011;11432;46.924;7.114;2022-10-26T13:20:52;7.72;;;3.08;;
22531;SDS011;11432;46.924;7.114;2022-10-26T13:23:29;7.75;;;3.08;;
22531;SDS011;11432;46.924;7.114;2022-10-26T13:26:02;8.80;;;3.40;;
22531;SDS011;11432;46.924;7.114;2022-10-26T13:31:02;4.78;;;2.55;;
22531;SDS011;11432;46.924;7.114;2022-10-26T13:33:50;4.32;;;2.45;;
22531;SDS011;11432;46.924;7.114;2022-10-26T13:36:22;5.20;;;2.45;;
22531;SDS011;11432;46.924;7.114;2022-10-26T13:39:02;5.20;;;2.42;;
22531;SDS011;11432;46.924;7.114;2022-10-26T13:41:41;4.20;;;2.58;;
22531;SDS011;11432;46.924;7.114;2022-10-26T13:44:13;9.63;;;2.92;;
22531;SDS011;11432;46.924;7.114;2022-10-26T13:46:44;4.55;;;2.38;;
22531;SDS011;11432;46.924;7.114;2022-10-26T13:49:29;5.32;;;2.08;;
22531;SDS011;11432;46.924;7.114;2022-10-26T13:52:01;3.75;;;2.38;;
22531;SDS011;11432;46.924;7.114;2022-10-26T14:00:06;12.20;;;2.33;;
22531;SDS011;11432;46.924;7.114;2022-10-26T14:02:44;5.00;;;2.20;;
22531;SDS011;11432;46.924;7.114;2022-10-26T14:05:11;8.77;;;2.80;;
22531;SDS011;11432;46.924;7.114;2022-10-26T14:07:48;8.17;;;2.37;;
22531;SDS011;11432;46.924;7.114;2022-10-26T14:10:26;6.18;;;2.42;;
22531;SDS011;11432;46.924;7.114;2022-10-26T14:13:05;7.10;;;2.30;;
22531;SDS011;11432;46.924;7.114;2022-10-26T14:15:32;4.53;;;2.10;;
22531;SDS011;11432;46.924;7.114;2022-10-26T14:18:00;4.22;;;2.17;;
22531;SDS011;11432;46.924;7.114;2022-10-26T14:20:27;6.03;;;2.50;;
22531;SDS011;11432;46.924;7.114;2022-10-26T14:22:55;6.45;;;2.80;;
22531;SDS011;11432;46.924;7.114;2022-10-26T14:25:22;6.57;;;2.78;;
22531;SDS011;11432;46.924;7.114;2022-10-26T14:27:51;7.28;;;2.72;;
22531;SDS011;11432;46.924;7.114;2022-10-26T14:30:20;7.75;;;2.85;;
22531;SDS011;11432;46.924;7.114;2022-10-26T14:32:46;5.93;;;2.28;;
22531;SDS011;11432;46.924;7.114;2022-10-26T14:35:12;7.78;;;2.58;;
22531;SDS011;11432;46.924;7.114;2022-10-26T14:37:45;4.88;;;2.17;;
22531;SDS011;11432;46.924;7.114;2022-10-26T14:40:27;5.77;;;2.50;;
22531;SDS011;11432;46.924;7.114;2022-10-26T14:42:56;8.57;;;2.40;;
22531;SDS011;11432;46.924;7.114;2022-10-26T14:47:58;5.80;;;2.28;;
22531;SDS011;11432;46.924;7.114;2022-10-26T14:50:25;5.53;;;2.30;;
22531;SDS011;11432;46.924;7.114;2022-10-26T14:52:55;6.60;;;2.92;;
22531;SDS011;11432;46.924;7.114;2022-10-26T14:55:24;6.13;;;2.60;;
22531;SDS011;11432;46.924;7.114;2022-10-26T14:57:51;4.35;;;2.10;;
22531;SDS011;11432;46.924;7.114;2022-10-26T15:00:29;6.05;;;2.05;;
22531;SDS011;11432;46.924;7.114;2022-10-26T15:02:55;4.50;;;2.63;;
22531;SDS011;11432;46.924;7.114;2022-10-26T15:07:48;5.18;;;2.08;;
22531;SDS011;11432;46.924;7.114;2022-10-26T15:13:13;4.72;;;2.50;;
22531;SDS011;11432;46.924;7.114;2022-10-26T15:15:45;5.80;;;2.55;;
22531;SDS011;11432;46.924;7.114;2022-10-26T15:20:49;6.45;;;2.17;;
22531;SDS011;11432;46.924;7.114;2022-10-26T15:23:15;6.40;;;2.03;;
22531;SDS011;11432;46.924;7.114;2022-10-26T15:25:55;5.55;;;2.28;;
22531;SDS011;11432;46.924;7.114;2022-10-26T15:34:21;4.18;;;2.35;;
22531;SDS011;11432;46.924;7.114;2022-10-26T15:36:35;5.07;;;2.53;;
22531;SDS011;11432;46.924;7.114;2022-10-26T15:39:02;8.45;;;2.85;;
22531;SDS011;11432;46.924;7.114;2022-10-26T15:41:31;7.10;;;3.00;;
22531;SDS011;11432;46.924;7.114;2022-10-26T15:44:02;5.75;;;2.72;;
22531;SDS011;11432;46.924;7.114;2022-10-26T15:46:33;8.13;;;2.67;;
22531;SDS011;11432;46.924;7.114;2022-10-26T15:49:02;6.45;;;2.72;;
22531;SDS011;11432;46.924;7.114;2022-10-26T15:51:29;5.47;;;2.90;;
22531;SDS011;11432;46.924;7.114;2022-10-26T15:53:58;4.72;;;2.45;;
22531;SDS011;11432;46.924;7.114;2022-10-26T15:56:26;7.63;;;2.80;;
22531;SDS011;11432;46.924;7.114;2022-10-26T15:58:55;7.57;;;2.92;;
22531;SDS011;11432;46.924;7.114;2022-10-26T16:01:22;7.95;;;2.83;;
22531;SDS011;11432;46.924;7.114;2022-10-26T16:03:52;6.60;;;3.25;;
22531;SDS011;11432;46.924;7.114;2022-10-26T16:06:28;7.57;;;2.92;;
22531;SDS011;11432;46.924;7.114;2022-10-26T16:09:05;9.82;;;3.00;;
22531;SDS011;11432;46.924;7.114;2022-10-26T16:11:33;4.63;;;2.60;;
22531;SDS011;11432;46.924;7.114;2022-10-26T16:13:59;4.70;;;2.80;;
22531;SDS011;11432;46.924;7.114;2022-10-26T16:16:25;6.13;;;2.80;;
22531;SDS011;11432;46.924;7.114;2022-10-26T16:18:51;8.48;;;2.90;;
22531;SDS011;11432;46.924;7.114;2022-10-26T16:21:18;7.32;;;2.70;;
22531;SDS011;11432;46.924;7.114;2022-10-26T16:23:46;4.18;;;2.30;;
22531;SDS011;11432;46.924;7.114;2022-10-26T16:26:13;6.07;;;2.63;;
22531;SDS011;11432;46.924;7.114;2022-10-26T16:28:39;4.50;;;2.88;;
22531;SDS011;11432;46.924;7.114;2022-10-26T16:31:06;9.07;;;2.95;;
22531;SDS011;11432;46.924;7.114;2022-10-26T16:33:34;7.63;;;3.33;;
22531;SDS011;11432;46.924;7.114;2022-10-26T16:36:00;7.78;;;3.10;;
22531;SDS011;11432;46.924;7.114;2022-10-26T16:38:26;7.65;;;3.13;;
22531;SDS011;11432;46.924;7.114;2022-10-26T16:43:35;6.45;;;2.83;;
22531;SDS011;11432;46.924;7.114;2022-10-26T16:46:04;5.72;;;3.88;;
22531;SDS011;11432;46.924;7.114;2022-10-26T16:48:34;10.32;;;3.30;;
22531;SDS011;11432;46.924;7.114;2022-10-26T16:51:11;5.40;;;2.97;;
22531;SDS011;11432;46.924;7.114;2022-10-26T16:53:38;5.25;;;3.10;;
22531;SDS011;11432;46.924;7.114;2022-10-26T16:56:05;10.75;;;3.47;;
22531;SDS011;11432;46.924;7.114;2022-10-26T16:58:37;6.20;;;3.08;;
22531;SDS011;11432;46.924;7.114;2022-10-26T17:01:03;9.40;;;3.05;;
22531;SDS011;11432;46.924;7.114;2022-10-26T17:03:29;5.80;;;2.83;;
22531;SDS011;11432;46.924;7.114;2022-10-26T17:05:59;6.28;;;3.47;;
22531;SDS011;11432;46.924;7.114;2022-10-26T17:08:26;8.32;;;2.90;;
22531;SDS011;11432;46.924;7.114;2022-10-26T17:10:53;5.15;;;3.30;;
22531;SDS011;11432;46.924;7.114;2022-10-26T17:13:20;6.53;;;3.08;;
22531;SDS011;11432;46.924;7.114;2022-10-26T17:15:46;6.78;;;3.00;;
22531;SDS011;11432;46.924;7.114;2022-10-26T17:18:12;8.35;;;3.10;;
22531;SDS011;11432;46.924;7.114;2022-10-26T17:20:38;7.88;;;3.13;;
22531;SDS011;11432;46.924;7.114;2022-10-26T17:23:04;11.07;;;3.38;;
22531;SDS011;11432;46.924;7.114;2022-10-26T17:25:32;7.55;;;3.20;;
22531;SDS011;11432;46.924;7.114;2022-10-26T17:28:02;12.20;;;4.10;;